createdAt,value
2017-03-06T00:00:07.393Z,6.54
2017-03-06T00:00:48.070Z,6.56
2017-03-06T00:01:28.804Z,6.54
2017-03-06T00:02:09.445Z,6.54
2017-03-06T00:02:50.107Z,6.56
2017-03-06T00:03:30.761Z,6.56
2017-03-06T00:04:11.415Z,6.6
2017-03-06T00:04:52.071Z,6.52
2017-03-06T00:05:32.808Z,6.62
2017-03-06T00:06:13.460Z,6.57
2017-03-06T00:06:54.247Z,6.57
2017-03-06T00:07:34.980Z,6.56
2017-03-06T00:08:15.618Z,6.57
2017-03-06T00:08:56.285Z,6.59
2017-03-06T00:09:37.103Z,6.64
2017-03-06T00:10:17.789Z,6.57
2017-03-06T00:10:58.570Z,6.59
2017-03-06T00:11:39.219Z,6.54
2017-03-06T00:12:19.888Z,6.59
2017-03-06T00:13:00.493Z,6.51
2017-03-06T00:13:41.163Z,6.57
2017-03-06T00:14:21.854Z,6.59
2017-03-06T00:15:02.594Z,6.54
2017-03-06T00:15:43.338Z,6.57
2017-03-06T00:16:24.989Z,6.56
2017-03-06T00:17:05.680Z,6.6
2017-03-06T00:17:47.340Z,6.6
2017-03-06T00:18:29.064Z,6.56
2017-03-06T00:19:09.757Z,6.56
2017-03-06T00:19:50.338Z,6.54
2017-03-06T00:20:30.996Z,6.59
2017-03-06T00:21:11.677Z,6.52
2017-03-06T00:21:52.365Z,6.56
2017-03-06T00:22:32.941Z,6.59
2017-03-06T00:23:13.593Z,6.57
2017-03-06T00:23:54.319Z,6.54
2017-03-06T00:24:34.929Z,6.63
2017-03-06T00:25:15.745Z,6.52
2017-03-06T00:25:56.382Z,6.52
2017-03-06T00:26:36.956Z,6.49
2017-03-06T00:27:17.610Z,6.56
2017-03-06T00:27:58.238Z,6.52
2017-03-06T00:28:38.893Z,6.54
2017-03-06T00:29:19.564Z,6.52
2017-03-06T00:30:01.225Z,6.54
2017-03-06T00:30:41.872Z,6.52
2017-03-06T00:31:22.540Z,6.57
2017-03-06T00:32:04.202Z,6.46
2017-03-06T00:32:44.776Z,6.52
2017-03-06T00:33:25.427Z,6.57
2017-03-06T00:34:06.169Z,6.51
2017-03-06T00:34:46.718Z,6.45
2017-03-06T00:35:27.391Z,6.48
2017-03-06T00:36:08.113Z,6.46
2017-03-06T00:36:49.804Z,6.46
2017-03-06T00:37:30.364Z,6.44
2017-03-06T00:38:11.019Z,6.51
2017-03-06T00:38:51.733Z,6.42
2017-03-06T00:39:32.412Z,6.46
2017-03-06T00:40:13.015Z,6.46
2017-03-06T00:40:53.725Z,6.49
2017-03-06T00:41:34.429Z,6.45
2017-03-06T00:42:15.130Z,6.36
2017-03-06T00:42:55.710Z,6.38
2017-03-06T00:43:36.449Z,6.39
2017-03-06T00:44:18.136Z,6.35
2017-03-06T00:44:58.878Z,6.39
2017-03-06T00:45:39.548Z,6.44
2017-03-06T00:46:20.204Z,6.44
2017-03-06T00:47:00.932Z,6.41
2017-03-06T00:47:41.594Z,6.39
2017-03-06T00:48:22.289Z,6.49
2017-03-06T00:49:02.987Z,6.35
2017-03-06T00:49:43.553Z,6.48
2017-03-06T00:50:24.220Z,6.49
2017-03-06T00:51:04.911Z,6.35
2017-03-06T00:51:45.600Z,6.38
2017-03-06T00:52:26.256Z,6.48
2017-03-06T00:53:06.925Z,6.46
2017-03-06T00:53:47.628Z,6.39
2017-03-06T00:54:28.317Z,6.49
2017-03-06T00:55:08.919Z,6.49
2017-03-06T00:55:49.663Z,6.54
2017-03-06T00:56:30.337Z,6.48
2017-03-06T00:57:11.028Z,6.52
2017-03-06T00:57:51.614Z,6.54
2017-03-06T00:58:32.357Z,6.48
2017-03-06T00:59:12.991Z,6.56
2017-03-06T00:59:53.561Z,6.42
2017-03-06T01:00:34.196Z,6.52
2017-03-06T01:01:15.972Z,6.48
2017-03-06T01:01:56.527Z,6.51
2017-03-06T01:02:37.217Z,6.49
2017-03-06T01:03:17.930Z,6.46
2017-03-06T01:03:58.486Z,6.54
2017-03-06T01:04:39.153Z,6.48
2017-03-06T01:05:19.788Z,6.51
2017-03-06T01:06:00.349Z,6.48
2017-03-06T01:06:41.005Z,6.51
2017-03-06T01:07:22.789Z,6.48
2017-03-06T01:08:03.338Z,6.48
2017-03-06T01:08:44.071Z,6.48
2017-03-06T01:09:24.773Z,6.52
2017-03-06T01:10:05.489Z,6.48
2017-03-06T01:10:46.036Z,6.51
2017-03-06T01:11:26.702Z,6.51
2017-03-06T01:12:07.397Z,6.42
2017-03-06T01:12:48.097Z,6.54
2017-03-06T01:13:28.687Z,6.56
2017-03-06T01:14:09.417Z,6.59
2017-03-06T01:14:50.236Z,6.51
2017-03-06T01:15:30.912Z,6.54
2017-03-06T01:16:11.591Z,6.51
2017-03-06T01:16:52.331Z,6.49
2017-03-06T01:17:33.010Z,6.56
2017-03-06T01:18:13.754Z,6.52
2017-03-06T01:18:54.504Z,6.52
2017-03-06T01:19:35.150Z,6.6
2017-03-06T01:20:15.798Z,6.56
2017-03-06T01:20:56.439Z,6.57
2017-03-06T01:21:37.107Z,6.59
2017-03-06T01:22:17.761Z,6.6
2017-03-06T01:22:58.444Z,6.54
2017-03-06T01:23:39.109Z,6.62
2017-03-06T01:24:21.757Z,6.57
2017-03-06T01:25:02.321Z,6.57
2017-03-06T01:25:44.028Z,6.62
2017-03-06T01:26:26.739Z,6.59
2017-03-06T01:27:09.386Z,6.62
2017-03-06T01:27:49.934Z,6.48
2017-03-06T01:28:30.598Z,6.54
2017-03-06T01:29:11.246Z,6.54
2017-03-06T01:29:51.904Z,6.54
2017-03-06T01:30:32.665Z,6.42
2017-03-06T01:31:13.306Z,6.39
2017-03-06T01:31:53.956Z,6.51
2017-03-06T01:32:34.605Z,6.57
2017-03-06T01:33:16.287Z,6.51
2017-03-06T01:33:56.858Z,6.6
2017-03-06T01:34:38.517Z,6.51
2017-03-06T01:35:19.271Z,6.45
2017-03-06T01:35:59.821Z,6.48
2017-03-06T01:36:40.475Z,6.51
2017-03-06T01:37:21.229Z,6.56
2017-03-06T01:38:01.787Z,6.45
2017-03-06T01:38:42.458Z,6.36
2017-03-06T01:39:23.149Z,6.33
2017-03-06T01:40:08.754Z,6.36
2017-03-06T01:40:49.326Z,6.44
2017-03-06T01:41:29.958Z,6.41
2017-03-06T01:42:11.686Z,6.35
2017-03-06T01:42:52.239Z,6.31
2017-03-06T01:43:32.964Z,6.22
2017-03-06T01:44:13.696Z,6.24
2017-03-06T01:44:54.261Z,6.17
2017-03-06T01:45:35.035Z,6.27
2017-03-06T01:46:16.691Z,6.24
2017-03-06T01:46:57.232Z,6.27
2017-03-06T01:47:37.988Z,6.22
2017-03-06T01:48:20.686Z,6.2
2017-03-06T01:49:02.385Z,6.22
2017-03-06T01:49:44.150Z,6.27
2017-03-06T01:50:24.705Z,6.26
2017-03-06T01:51:05.459Z,6.28
2017-03-06T01:51:47.149Z,6.28
2017-03-06T01:52:27.808Z,6.31
2017-03-06T01:53:08.566Z,6.26
2017-03-06T01:53:49.320Z,6.39
2017-03-06T01:54:30.045Z,6.31
2017-03-06T01:55:10.707Z,6.35
2017-03-06T01:55:52.498Z,6.3
2017-03-06T01:56:33.234Z,6.26
2017-03-06T01:57:14.941Z,6.27
2017-03-06T01:57:55.684Z,6.22
2017-03-06T01:58:37.402Z,6.19
2017-03-06T01:59:18.096Z,6.17
2017-03-06T01:59:58.651Z,6.09
2017-03-06T02:00:40.383Z,6.02
2017-03-06T02:01:23.089Z,6.05
2017-03-06T02:02:03.782Z,5.97
2017-03-06T02:02:44.353Z,5.91
2017-03-06T02:03:25.028Z,5.93
2017-03-06T02:04:05.739Z,5.84
2017-03-06T02:04:46.289Z,5.82
2017-03-06T02:05:26.943Z,5.75
2017-03-06T02:06:07.599Z,5.72
2017-03-06T02:06:48.174Z,5.68
2017-03-06T02:07:30.875Z,5.66
2017-03-06T02:08:11.721Z,5.65
2017-03-06T02:08:52.283Z,5.62
2017-03-06T02:09:32.913Z,5.56
2017-03-06T02:10:13.616Z,5.56
2017-03-06T02:10:54.314Z,5.47
2017-03-06T02:11:34.888Z,5.44
2017-03-06T02:12:15.663Z,5.32
2017-03-06T02:12:56.337Z,5.35
2017-03-06T02:13:37.081Z,5.36
2017-03-06T02:14:17.745Z,5.43
2017-03-06T02:14:58.492Z,5.39
2017-03-06T02:15:39.260Z,5.35
2017-03-06T02:16:21.027Z,5.29
2017-03-06T02:17:01.787Z,5.18
2017-03-06T02:17:43.474Z,5.26
2017-03-06T02:18:25.138Z,5.23
2017-03-06T02:19:06.828Z,5.26
2017-03-06T02:19:47.476Z,5.25
2017-03-06T02:20:28.121Z,5.25
2017-03-06T02:21:08.884Z,5.26
2017-03-06T02:21:49.636Z,5.21
2017-03-06T02:22:31.323Z,5.26
2017-03-06T02:23:12.994Z,5.21
2017-03-06T02:23:54.675Z,5.26
2017-03-06T02:24:35.411Z,5.23
2017-03-06T02:25:16.085Z,5.36
2017-03-06T02:25:56.722Z,5.32
2017-03-06T02:26:37.490Z,5.32
2017-03-06T02:27:18.165Z,5.36
2017-03-06T02:27:58.894Z,5.43
2017-03-06T02:28:39.452Z,5.47
2017-03-06T02:29:21.190Z,5.46
2017-03-06T02:30:01.920Z,5.43
2017-03-06T02:30:42.487Z,5.48
2017-03-06T02:31:23.246Z,5.53
2017-03-06T02:32:03.897Z,5.48
2017-03-06T02:32:44.450Z,5.57
2017-03-06T02:33:25.103Z,5.54
2017-03-06T02:34:05.851Z,5.65
2017-03-06T02:34:46.510Z,5.65
2017-03-06T02:35:27.265Z,5.66
2017-03-06T02:36:08.023Z,5.68
2017-03-06T02:36:48.795Z,5.65
2017-03-06T02:37:29.533Z,5.54
2017-03-06T02:38:10.293Z,5.73
2017-03-06T02:38:51.025Z,5.71
2017-03-06T02:39:31.613Z,5.72
2017-03-06T02:40:12.346Z,5.72
2017-03-06T02:40:53.084Z,5.73
2017-03-06T02:41:33.671Z,5.71
2017-03-06T02:42:14.326Z,5.79
2017-03-06T02:42:55.049Z,5.73
2017-03-06T02:43:35.631Z,5.8
2017-03-06T02:44:16.365Z,5.83
2017-03-06T02:44:58.089Z,5.84
2017-03-06T02:45:38.778Z,5.82
2017-03-06T02:46:19.368Z,5.82
2017-03-06T02:47:01.132Z,5.84
2017-03-06T02:47:41.827Z,5.82
2017-03-06T02:48:22.536Z,5.83
2017-03-06T02:49:03.099Z,5.87
2017-03-06T02:49:44.885Z,5.82
2017-03-06T02:50:25.642Z,5.87
2017-03-06T02:51:07.399Z,5.82
2017-03-06T02:51:48.067Z,5.83
2017-03-06T02:52:28.721Z,5.84
2017-03-06T02:53:10.380Z,5.89
2017-03-06T02:53:51.124Z,5.84
2017-03-06T02:54:31.688Z,5.91
2017-03-06T02:55:12.468Z,5.9
2017-03-06T02:55:53.150Z,5.93
2017-03-06T02:56:33.702Z,5.89
2017-03-06T02:57:14.296Z,5.93
2017-03-06T02:57:55.011Z,5.99
2017-03-06T02:58:35.695Z,5.89
2017-03-06T02:59:16.248Z,5.93
2017-03-06T02:59:57.936Z,5.9
2017-03-06T03:00:38.639Z,5.9
2017-03-06T03:01:19.343Z,5.94
2017-03-06T03:01:59.915Z,5.89
2017-03-06T03:02:40.669Z,5.9
2017-03-06T03:03:21.412Z,5.9
2017-03-06T03:04:02.187Z,5.91
2017-03-06T03:04:42.912Z,5.89
2017-03-06T03:05:23.673Z,5.9
2017-03-06T03:06:04.359Z,5.91
2017-03-06T03:06:45.095Z,5.9
2017-03-06T03:07:25.859Z,5.89
2017-03-06T03:08:06.606Z,5.9
2017-03-06T03:08:47.341Z,5.91
2017-03-06T03:09:28.096Z,5.9
2017-03-06T03:10:08.856Z,5.98
2017-03-06T03:10:49.626Z,5.93
2017-03-06T03:11:30.388Z,5.9
2017-03-06T03:12:11.142Z,5.9
2017-03-06T03:12:51.872Z,5.87
2017-03-06T03:13:32.626Z,5.87
2017-03-06T03:14:14.331Z,5.83
2017-03-06T03:14:55.066Z,5.82
2017-03-06T03:15:36.841Z,5.83
2017-03-06T03:16:17.593Z,5.76
2017-03-06T03:16:58.452Z,5.71
2017-03-06T03:17:39.233Z,5.79
2017-03-06T03:18:19.807Z,5.76
2017-03-06T03:19:00.431Z,5.73
2017-03-06T03:19:40.961Z,5.69
2017-03-06T03:20:21.818Z,5.69
2017-03-06T03:21:02.519Z,5.59
2017-03-06T03:21:43.227Z,5.59
2017-03-06T03:22:23.775Z,5.56
2017-03-06T03:23:04.543Z,5.5
2017-03-06T03:23:45.285Z,5.51
2017-03-06T03:24:25.860Z,5.44
2017-03-06T03:25:06.606Z,5.41
2017-03-06T03:25:47.962Z,5.32
2017-03-06T03:26:28.525Z,5.36
2017-03-06T03:27:09.280Z,5.35
2017-03-06T03:27:50.023Z,5.26
2017-03-06T03:28:30.576Z,5.23
2017-03-06T03:29:11.357Z,5.28
2017-03-06T03:29:52.042Z,5.26
2017-03-06T03:30:32.739Z,5.26
2017-03-06T03:31:13.317Z,5.21
2017-03-06T03:31:54.043Z,5.28
2017-03-06T03:32:35.771Z,5.23
2017-03-06T03:33:16.421Z,5.23
2017-03-06T03:33:56.970Z,5.21
2017-03-06T03:34:37.627Z,5.26
2017-03-06T03:35:18.278Z,5.29
2017-03-06T03:35:58.934Z,5.36
2017-03-06T03:36:39.608Z,5.39
2017-03-06T03:37:20.247Z,5.44
2017-03-06T03:38:00.891Z,5.43
2017-03-06T03:38:41.594Z,5.35
2017-03-06T03:39:22.300Z,5.44
2017-03-06T03:40:02.853Z,5.44
2017-03-06T03:40:43.551Z,5.47
2017-03-06T03:41:24.206Z,5.44
2017-03-06T03:42:04.910Z,5.5
2017-03-06T03:42:45.463Z,5.59
2017-03-06T03:43:26.116Z,5.54
2017-03-06T03:44:06.829Z,5.5
2017-03-06T03:44:47.524Z,5.61
2017-03-06T03:45:28.105Z,5.61
2017-03-06T03:46:08.727Z,5.56
2017-03-06T03:46:49.431Z,5.61
2017-03-06T03:47:30.129Z,5.62
2017-03-06T03:48:10.690Z,5.68
2017-03-06T03:48:51.358Z,5.68
2017-03-06T03:49:32.040Z,5.68
2017-03-06T03:50:12.746Z,5.65
2017-03-06T03:50:53.296Z,5.72
2017-03-06T03:51:33.950Z,5.69
2017-03-06T03:52:14.714Z,5.64
2017-03-06T03:52:55.375Z,5.68
2017-03-06T03:53:35.926Z,5.71
2017-03-06T03:54:16.557Z,5.62
2017-03-06T03:54:57.214Z,5.66
2017-03-06T03:55:37.763Z,5.66
2017-03-06T03:56:18.419Z,5.65
2017-03-06T03:56:59.070Z,5.64
2017-03-06T03:57:39.615Z,5.64
2017-03-06T03:58:20.311Z,5.66
2017-03-06T03:59:00.995Z,5.65
2017-03-06T03:59:41.676Z,5.69
2017-03-06T04:00:22.229Z,5.66
2017-03-06T04:01:02.959Z,5.65
2017-03-06T04:01:43.585Z,5.65
2017-03-06T04:02:24.311Z,5.59
2017-03-06T04:03:04.850Z,5.66
2017-03-06T04:03:45.501Z,5.53
2017-03-06T04:04:26.161Z,5.64
2017-03-06T04:05:06.821Z,5.65
2017-03-06T04:05:47.453Z,5.66
2017-03-06T04:06:29.135Z,5.57
2017-03-06T04:07:09.754Z,5.68
2017-03-06T04:07:50.437Z,5.73
2017-03-06T04:08:31.101Z,5.71
2017-03-06T04:09:11.797Z,5.72
2017-03-06T04:09:52.500Z,5.69
2017-03-06T04:10:33.053Z,5.73
2017-03-06T04:11:13.704Z,5.73
2017-03-06T04:11:54.407Z,5.71
2017-03-06T04:12:35.107Z,5.75
2017-03-06T04:13:15.682Z,5.72
2017-03-06T04:13:56.327Z,5.82
2017-03-06T04:14:37.065Z,5.79
2017-03-06T04:15:18.783Z,5.76
2017-03-06T04:15:59.410Z,5.79
2017-03-06T04:16:40.087Z,5.75
2017-03-06T04:17:20.737Z,5.76
2017-03-06T04:18:01.356Z,5.86
2017-03-06T04:18:42.131Z,5.79
2017-03-06T04:19:22.763Z,5.76
2017-03-06T04:20:03.428Z,5.82
2017-03-06T04:20:44.069Z,5.84
2017-03-06T04:21:24.748Z,5.82
2017-03-06T04:22:05.389Z,5.84
2017-03-06T04:22:46.041Z,5.8
2017-03-06T04:23:26.691Z,5.87
2017-03-06T04:24:07.383Z,5.84
2017-03-06T04:24:48.086Z,5.87
2017-03-06T04:25:28.651Z,5.93
2017-03-06T04:26:09.314Z,5.84
2017-03-06T04:26:49.998Z,5.84
2017-03-06T04:27:30.696Z,5.87
2017-03-06T04:28:11.253Z,5.87
2017-03-06T04:28:51.927Z,5.86
2017-03-06T04:29:32.608Z,5.87
2017-03-06T04:30:13.315Z,5.89
2017-03-06T04:30:53.862Z,5.86
2017-03-06T04:31:34.468Z,5.86
2017-03-06T04:32:15.066Z,5.86
2017-03-06T04:32:55.718Z,5.86
2017-03-06T04:33:36.375Z,5.83
2017-03-06T04:34:17.033Z,5.84
2017-03-06T04:34:57.783Z,5.86
2017-03-06T04:35:38.438Z,5.89
2017-03-06T04:36:19.082Z,5.84
2017-03-06T04:36:59.735Z,5.9
2017-03-06T04:37:40.494Z,5.8
2017-03-06T04:38:21.148Z,5.87
2017-03-06T04:39:01.800Z,5.8
2017-03-06T04:39:42.452Z,5.84
2017-03-06T04:40:23.107Z,5.83
2017-03-06T04:41:03.759Z,5.8
2017-03-06T04:41:44.520Z,5.83
2017-03-06T04:42:25.174Z,5.8
2017-03-06T04:43:05.821Z,5.87
2017-03-06T04:43:46.374Z,5.87
2017-03-06T04:44:27.045Z,5.87
2017-03-06T04:45:09.783Z,5.91
2017-03-06T04:45:50.375Z,5.93
2017-03-06T04:46:30.952Z,5.86
2017-03-06T04:47:11.584Z,5.93
2017-03-06T04:47:52.303Z,5.89
2017-03-06T04:48:32.987Z,5.91
2017-03-06T04:49:13.542Z,5.98
2017-03-06T04:49:54.218Z,5.94
2017-03-06T04:50:34.876Z,5.97
2017-03-06T04:51:16.535Z,5.94
2017-03-06T04:51:57.206Z,5.91
2017-03-06T04:52:37.792Z,5.94
2017-03-06T04:53:20.483Z,5.94
2017-03-06T04:54:02.159Z,5.89
2017-03-06T04:54:42.860Z,5.91
2017-03-06T04:55:23.407Z,5.91
2017-03-06T04:56:05.118Z,5.91
2017-03-06T04:56:45.800Z,5.89
2017-03-06T04:57:26.500Z,5.9
2017-03-06T04:58:07.060Z,5.93
2017-03-06T04:58:47.717Z,5.91
2017-03-06T04:59:28.402Z,5.89
2017-03-06T05:00:09.104Z,5.94
2017-03-06T05:00:49.674Z,5.87
2017-03-06T05:01:30.329Z,5.93
2017-03-06T05:02:11.027Z,5.93
2017-03-06T05:02:51.740Z,5.9
2017-03-06T05:03:32.261Z,5.89
2017-03-06T05:04:12.956Z,5.89
2017-03-06T05:04:53.593Z,5.87
2017-03-06T05:05:34.238Z,5.87
2017-03-06T05:06:14.891Z,5.9
2017-03-06T05:06:55.550Z,5.93
2017-03-06T05:07:36.199Z,5.9
2017-03-06T05:08:16.855Z,5.91
2017-03-06T05:08:57.494Z,5.93
2017-03-06T05:09:38.039Z,5.91
2017-03-06T05:10:18.715Z,5.94
2017-03-06T05:10:59.354Z,5.93
2017-03-06T05:11:39.898Z,5.94
2017-03-06T05:12:20.593Z,5.91
2017-03-06T05:13:01.313Z,5.93
2017-03-06T05:13:41.869Z,5.9
2017-03-06T05:14:22.521Z,5.89
2017-03-06T05:15:03.230Z,5.91
2017-03-06T05:15:43.926Z,5.97
2017-03-06T05:16:24.481Z,5.94
2017-03-06T05:17:05.164Z,5.89
2017-03-06T05:17:45.836Z,5.89
2017-03-06T05:18:26.546Z,5.9
2017-03-06T05:19:07.134Z,5.98
2017-03-06T05:19:47.872Z,5.93
2017-03-06T05:20:28.560Z,5.9
2017-03-06T05:21:09.251Z,5.89
2017-03-06T05:21:49.820Z,5.9
2017-03-06T05:22:30.561Z,5.91
2017-03-06T05:23:11.286Z,5.89
2017-03-06T05:23:52.985Z,5.93
2017-03-06T05:24:33.643Z,5.93
2017-03-06T05:25:14.291Z,5.93
2017-03-06T05:25:54.947Z,5.98
2017-03-06T05:26:35.704Z,5.9
2017-03-06T05:27:16.354Z,5.93
2017-03-06T05:27:57.011Z,5.87
2017-03-06T05:28:37.661Z,5.93
2017-03-06T05:29:18.315Z,5.93
2017-03-06T05:29:58.964Z,5.93
2017-03-06T05:30:39.624Z,5.9
2017-03-06T05:31:20.274Z,5.91
2017-03-06T05:32:01.067Z,5.9
2017-03-06T05:32:41.778Z,5.89
2017-03-06T05:33:22.430Z,5.9
2017-03-06T05:34:02.996Z,5.93
2017-03-06T05:34:43.678Z,5.89
2017-03-06T05:35:24.418Z,5.9
2017-03-06T05:36:05.078Z,5.97
2017-03-06T05:36:45.753Z,5.93
2017-03-06T05:37:26.464Z,5.9
2017-03-06T05:38:07.044Z,5.91
2017-03-06T05:38:47.776Z,5.94
2017-03-06T05:39:28.516Z,5.86
2017-03-06T05:40:09.069Z,5.91
2017-03-06T05:40:49.738Z,5.9
2017-03-06T05:41:30.425Z,5.9
2017-03-06T05:42:11.129Z,5.98
2017-03-06T05:42:51.702Z,5.91
2017-03-06T05:43:32.338Z,5.94
2017-03-06T05:44:13.038Z,5.89
2017-03-06T05:44:53.741Z,5.94
2017-03-06T05:45:34.325Z,5.84
2017-03-06T05:46:15.056Z,5.93
2017-03-06T05:46:55.766Z,5.89
2017-03-06T05:47:36.459Z,5.93
2017-03-06T05:48:17.022Z,5.9
2017-03-06T05:48:57.724Z,5.93
2017-03-06T05:49:38.474Z,5.87
2017-03-06T05:50:19.164Z,5.93
2017-03-06T05:50:59.750Z,5.83
2017-03-06T05:51:40.486Z,5.84
2017-03-06T05:52:21.287Z,5.87
2017-03-06T05:53:01.986Z,5.86
2017-03-06T05:53:42.542Z,5.84
2017-03-06T05:54:23.217Z,5.84
2017-03-06T05:55:03.949Z,5.79
2017-03-06T05:55:44.533Z,5.79
2017-03-06T05:56:25.327Z,5.87
2017-03-06T05:57:06.015Z,5.9
2017-03-06T05:57:46.564Z,5.91
2017-03-06T05:58:27.244Z,5.8
2017-03-06T05:59:07.965Z,5.79
2017-03-06T05:59:48.504Z,5.82
2017-03-06T06:00:29.179Z,5.83
2017-03-06T06:01:09.928Z,5.86
2017-03-06T06:01:50.479Z,5.89
2017-03-06T06:02:31.126Z,5.87
2017-03-06T06:03:11.880Z,5.8
2017-03-06T06:03:52.484Z,5.82
2017-03-06T06:04:33.217Z,5.83
2017-03-06T06:05:13.896Z,5.84
2017-03-06T06:05:54.601Z,5.84
2017-03-06T06:06:35.180Z,5.86
2017-03-06T06:07:15.923Z,5.8
2017-03-06T06:07:56.647Z,5.79
2017-03-06T06:08:37.416Z,5.86
2017-03-06T06:09:17.980Z,5.82
2017-03-06T06:09:58.758Z,5.87
2017-03-06T06:10:39.514Z,5.76
2017-03-06T06:11:20.243Z,5.89
2017-03-06T06:12:00.904Z,5.82
2017-03-06T06:12:42.567Z,5.84
2017-03-06T06:13:23.341Z,5.83
2017-03-06T06:14:04.109Z,5.76
2017-03-06T06:14:45.022Z,5.76
2017-03-06T06:15:25.695Z,5.84
2017-03-06T06:16:06.372Z,5.82
2017-03-06T06:16:47.124Z,5.76
2017-03-06T06:17:27.850Z,5.82
2017-03-06T06:18:08.498Z,5.84
2017-03-06T06:18:49.174Z,5.71
2017-03-06T06:19:29.999Z,5.75
2017-03-06T06:20:12.708Z,5.75
2017-03-06T06:20:53.272Z,5.76
2017-03-06T06:21:33.971Z,5.86
2017-03-06T06:22:14.645Z,5.82
2017-03-06T06:22:55.326Z,5.86
2017-03-06T06:23:35.860Z,5.76
2017-03-06T06:24:16.526Z,5.79
2017-03-06T06:24:57.385Z,5.84
2017-03-06T06:25:37.936Z,5.82
2017-03-06T06:26:18.593Z,5.86
2017-03-06T06:26:59.265Z,5.83
2017-03-06T06:27:39.823Z,5.83
2017-03-06T06:28:20.574Z,5.84
2017-03-06T06:29:01.301Z,5.79
2017-03-06T06:29:41.856Z,5.83
2017-03-06T06:30:22.527Z,5.8
2017-03-06T06:31:03.264Z,5.82
2017-03-06T06:31:43.841Z,5.76
2017-03-06T06:32:24.489Z,5.82
2017-03-06T06:33:05.225Z,5.83
2017-03-06T06:33:45.791Z,5.84
2017-03-06T06:34:26.454Z,5.82
2017-03-06T06:35:07.132Z,5.8
2017-03-06T06:35:47.834Z,5.76
2017-03-06T06:36:28.397Z,5.76
2017-03-06T06:37:09.179Z,5.83
2017-03-06T06:37:49.870Z,5.76
2017-03-06T06:38:31.571Z,5.82
2017-03-06T06:39:12.330Z,5.76
2017-03-06T06:39:53.078Z,5.83
2017-03-06T06:40:33.838Z,5.76
2017-03-06T06:41:14.599Z,5.76
2017-03-06T06:41:57.301Z,5.71
2017-03-06T06:42:38.051Z,5.84
2017-03-06T06:43:18.704Z,5.76
2017-03-06T06:43:59.458Z,5.75
2017-03-06T06:44:40.111Z,5.84
2017-03-06T06:45:20.757Z,5.75
2017-03-06T06:46:01.527Z,5.73
2017-03-06T06:46:47.805Z,5.82
2017-03-06T06:47:28.556Z,5.79
2017-03-06T06:48:10.347Z,5.75
2017-03-06T06:48:50.919Z,5.79
2017-03-06T06:49:32.684Z,5.79
2017-03-06T06:50:18.338Z,5.79
2017-03-06T06:50:58.906Z,5.71
2017-03-06T06:51:40.583Z,5.71
2017-03-06T06:52:22.247Z,5.72
2017-03-06T06:53:02.811Z,5.76
2017-03-06T06:53:43.567Z,5.76
2017-03-06T06:54:25.293Z,5.71
2017-03-06T06:55:05.986Z,5.76
2017-03-06T06:55:46.581Z,5.8
2017-03-06T06:56:27.300Z,5.83
2017-03-06T06:57:10.045Z,5.86
2017-03-06T06:57:51.766Z,5.82
2017-03-06T06:58:32.335Z,5.89
2017-03-06T06:59:13.105Z,5.83
2017-03-06T06:59:53.803Z,5.82
2017-03-06T07:00:35.508Z,5.86
2017-03-06T07:01:16.069Z,5.83
2017-03-06T07:01:56.744Z,5.83
2017-03-06T07:02:37.442Z,5.91
2017-03-06T07:03:18.117Z,5.9
2017-03-06T07:03:58.674Z,5.91
2017-03-06T07:04:39.328Z,5.89
2017-03-06T07:05:20.080Z,5.86
2017-03-06T07:06:00.726Z,5.94
2017-03-06T07:06:42.411Z,5.87
2017-03-06T07:07:23.063Z,5.93
2017-03-06T07:08:03.811Z,5.93
2017-03-06T07:08:44.529Z,5.9
2017-03-06T07:09:25.242Z,5.91
2017-03-06T07:10:05.895Z,5.91
2017-03-06T07:10:46.654Z,5.91
2017-03-06T07:11:27.396Z,5.89
2017-03-06T07:12:08.155Z,5.98
2017-03-06T07:12:48.821Z,5.98
2017-03-06T07:13:29.564Z,6.02
2017-03-06T07:14:10.274Z,6.08
2017-03-06T07:14:50.961Z,5.89
2017-03-06T07:15:31.517Z,5.91
2017-03-06T07:16:12.299Z,5.98
2017-03-06T07:16:52.978Z,6.02
2017-03-06T07:17:33.681Z,6.04
2017-03-06T07:18:14.254Z,5.99
2017-03-06T07:18:54.985Z,5.98
2017-03-06T07:19:35.664Z,6.02
2017-03-06T07:20:16.295Z,6.08
2017-03-06T07:20:57.065Z,6.12
2017-03-06T07:21:37.804Z,6.08
2017-03-06T07:22:18.558Z,6.04
2017-03-06T07:22:59.343Z,6.14
2017-03-06T07:23:40.120Z,6.16
2017-03-06T07:24:20.846Z,6.16
2017-03-06T07:25:01.582Z,6.24
2017-03-06T07:25:42.349Z,6.16
2017-03-06T07:26:23.120Z,6.26
2017-03-06T07:27:03.904Z,6.2
2017-03-06T07:27:44.623Z,6.22
2017-03-06T07:28:25.280Z,6.31
2017-03-06T07:29:06.030Z,6.26
2017-03-06T07:29:46.789Z,6.36
2017-03-06T07:30:27.523Z,6.38
2017-03-06T07:31:08.279Z,6.3
2017-03-06T07:31:49.071Z,6.36
2017-03-06T07:32:29.822Z,6.31
2017-03-06T07:33:10.540Z,6.35
2017-03-06T07:33:51.299Z,6.48
2017-03-06T07:34:33.128Z,6.52
2017-03-06T07:35:13.846Z,6.48
2017-03-06T07:35:55.437Z,6.52
2017-03-06T07:36:36.194Z,6.54
2017-03-06T07:37:16.956Z,6.6
2017-03-06T07:37:57.796Z,6.57
2017-03-06T07:38:38.536Z,6.6
2017-03-06T07:39:19.291Z,6.57
2017-03-06T07:40:00.042Z,6.72
2017-03-06T07:40:40.852Z,6.66
2017-03-06T07:41:21.557Z,6.67
2017-03-06T07:42:02.346Z,6.66
2017-03-06T07:42:44.100Z,6.6
2017-03-06T07:43:25.781Z,6.63
2017-03-06T07:44:07.555Z,6.69
2017-03-06T07:44:48.361Z,6.77
2017-03-06T07:45:29.169Z,6.66
2017-03-06T07:46:09.913Z,6.62
2017-03-06T07:46:50.507Z,6.72
2017-03-06T07:47:31.222Z,6.75
2017-03-06T07:48:11.969Z,6.82
2017-03-06T07:48:52.753Z,6.79
2017-03-06T07:49:34.527Z,6.85
2017-03-06T07:50:15.248Z,6.87
2017-03-06T07:50:55.910Z,6.85
2017-03-06T07:51:36.497Z,6.88
2017-03-06T07:52:17.182Z,6.97
2017-03-06T07:52:57.767Z,6.84
2017-03-06T07:53:38.337Z,6.97
2017-03-06T07:54:18.973Z,6.97
2017-03-06T07:54:59.520Z,6.96
2017-03-06T07:55:40.086Z,6.97
2017-03-06T07:56:20.726Z,6.99
2017-03-06T07:57:01.296Z,6.87
2017-03-06T07:57:41.955Z,6.99
2017-03-06T07:58:22.585Z,6.99
2017-03-06T07:59:03.234Z,6.95
2017-03-06T07:59:43.924Z,6.85
2017-03-06T08:00:24.543Z,6.84
2017-03-06T08:01:05.195Z,6.87
2017-03-06T08:01:45.844Z,6.84
2017-03-06T08:02:26.498Z,6.88
2017-03-06T08:03:07.151Z,6.96
2017-03-06T08:03:47.767Z,6.88
2017-03-06T08:04:28.378Z,6.84
2017-03-06T08:05:08.961Z,6.93
2017-03-06T08:05:49.561Z,6.96
2017-03-06T08:06:30.134Z,6.97
2017-03-06T08:07:10.769Z,7.02
2017-03-06T08:07:51.365Z,6.97
2017-03-06T08:08:31.966Z,6.97
2017-03-06T08:09:12.568Z,7.02
2017-03-06T08:09:53.181Z,7.03
2017-03-06T08:10:33.769Z,7.02
2017-03-06T08:11:14.470Z,7.1
2017-03-06T08:11:55.037Z,7.14
2017-03-06T08:12:35.681Z,7.03
2017-03-06T08:13:16.306Z,7
2017-03-06T08:13:56.978Z,7.14
2017-03-06T08:14:37.631Z,7.13
2017-03-06T08:15:18.283Z,7.17
2017-03-06T08:15:58.939Z,7.23
2017-03-06T08:16:40.613Z,7.18
2017-03-06T08:17:21.274Z,7.14
2017-03-06T08:18:01.923Z,7.18
2017-03-06T08:18:42.574Z,7.21
2017-03-06T08:19:23.224Z,7.17
2017-03-06T08:20:03.876Z,7.23
2017-03-06T08:20:44.528Z,7.23
2017-03-06T08:21:25.185Z,7.24
2017-03-06T08:22:05.851Z,7.32
2017-03-06T08:22:46.488Z,7.35
2017-03-06T08:23:27.141Z,7.31
2017-03-06T08:24:07.694Z,7.4
2017-03-06T08:24:48.345Z,7.43
2017-03-06T08:25:29.003Z,7.57
2017-03-06T08:26:09.656Z,7.67
2017-03-06T08:26:50.378Z,7.7
2017-03-06T08:27:30.965Z,7.8
2017-03-06T08:28:11.633Z,7.94
2017-03-06T08:28:52.256Z,8.01
2017-03-06T08:29:32.940Z,8.16
2017-03-06T08:30:13.587Z,8.15
2017-03-06T08:30:54.240Z,8.28
2017-03-06T08:31:34.895Z,8.33
2017-03-06T08:32:15.569Z,8.44
2017-03-06T08:32:56.214Z,8.51
2017-03-06T08:33:36.851Z,8.69
2017-03-06T08:34:17.543Z,8.66
2017-03-06T08:34:58.145Z,8.82
2017-03-06T08:35:38.677Z,8.84
2017-03-06T08:36:20.292Z,8.99
2017-03-06T08:37:00.977Z,9
2017-03-06T08:37:41.569Z,9.06
2017-03-06T08:38:22.125Z,9.08
2017-03-06T08:39:02.772Z,9.1
2017-03-06T08:39:43.470Z,9.04
2017-03-06T08:40:24.053Z,9.18
2017-03-06T08:41:04.647Z,9.11
2017-03-06T08:41:45.285Z,9.1
2017-03-06T08:42:25.842Z,9.08
2017-03-06T08:43:06.507Z,9.03
2017-03-06T08:43:47.155Z,9.08
2017-03-06T08:44:27.794Z,8.99
2017-03-06T08:45:08.447Z,9.06
2017-03-06T08:45:49.050Z,8.92
2017-03-06T08:46:29.641Z,8.87
2017-03-06T08:47:10.301Z,8.87
2017-03-06T08:47:51.040Z,8.85
2017-03-06T08:48:31.661Z,8.76
2017-03-06T08:49:12.253Z,8.78
2017-03-06T08:49:52.823Z,8.79
2017-03-06T08:50:33.479Z,8.76
2017-03-06T08:51:14.059Z,8.85
2017-03-06T08:51:54.663Z,8.85
2017-03-06T08:52:35.222Z,8.84
2017-03-06T08:53:15.879Z,8.82
2017-03-06T08:53:56.482Z,8.79
2017-03-06T08:54:37.090Z,8.74
2017-03-06T08:55:17.728Z,8.82
2017-03-06T08:55:58.324Z,8.82
2017-03-06T08:56:38.926Z,8.82
2017-03-06T08:57:19.591Z,8.89
2017-03-06T08:58:00.241Z,9.04
2017-03-06T08:58:40.907Z,9.06
2017-03-06T08:59:21.566Z,9.14
2017-03-06T09:00:02.209Z,9.22
2017-03-06T09:00:42.856Z,9.25
2017-03-06T09:01:23.515Z,9.32
2017-03-06T09:02:04.148Z,9.25
2017-03-06T09:02:44.817Z,9.23
2017-03-06T09:03:25.474Z,9.32
2017-03-06T09:04:06.163Z,9.16